Weather reports worldwide

Advertisment
Matera, Italy (16314): temperature & dewpoint: 15.05.2019 16:00:00 - 21.05.2019 16:00:00 (CEST)Matera, Italy (16314): wind speed: 15.05.2019 16:00:00 - 21.05.2019 16:00:00 (CEST)Matera, Italy (16314): wind direction: 15.05.2019 16:00:00 - 21.05.2019 16:00:00 (CEST)Matera, Italy (16314): reduced air pressure: 15.05.2019 16:00:00 - 21.05.2019 16:00:00 (CEST)
Date & Time tt [°C] td [°C] ff [km/h] ff [kn] dd ppp [hPa]
21.05.2019 16:00:00 - - - - - -
21.05.2019 15:00:00 19,7 10,6 0 0 N 1015,8
21.05.2019 14:00:00 18,8 10,0 18 10 NW 1015,9
21.05.2019 13:00:00 18,0 10,6 2 1 NW 1016,1
21.05.2019 12:00:00 18,8 10,8 0 0 N 1015,6
21.05.2019 11:00:00 16,9 10,9 11 6 WNW 1015,7
21.05.2019 10:00:00 15,7 11,2 11 6 W 1015,7
21.05.2019 09:00:00 14,4 10,6 21 11 W 1015,5
21.05.2019 08:00:00 12,7 9,9 0 0 N 1015,2
21.05.2019 07:00:00 11,5 9,4 13 7 W 1015,1
21.05.2019 06:00:00 10,0 7,6 0 0 N 1015,6
21.05.2019 05:00:00 9,8 7,5 15 8 W 1015,3
21.05.2019 04:00:00 9,9 7,3 0 0 N 1015,6
21.05.2019 03:00:00 9,6 7,2 13 7 W 1015,7
21.05.2019 02:00:00 10,5 7,9 8 4 W 1015,7
21.05.2019 01:00:00 10,1 7,1 0 0 N 1016,2
21.05.2019 00:00:00 10,2 7,9 0 0 N 1016,3
20.05.2019 23:00:00 10,4 8,0 15 8 W 1015,8
20.05.2019 22:00:00 12,1 10,0 0 0 N 1015,0
20.05.2019 21:00:00 12,4 10,8 0 0 N 1014,4
20.05.2019 20:00:00 13,1 9,9 0 0 N 1014,1
20.05.2019 19:00:00 14,0 10,6 0 0 N 1014,2
20.05.2019 18:00:00 14,8 10,8 0 0 N 1013,8
20.05.2019 17:00:00 15,4 10,7 0 0 N 1013,7
20.05.2019 16:00:00 11,9 9,1 18 10 NW 1014,8
20.05.2019 15:00:00 17,4 10,5 26 14 WNW 1013,1
20.05.2019 14:00:00 14,7 10,3 16 9 W 1013,8
20.05.2019 13:00:00 16,8 8,7 24 13 W 1013,2
20.05.2019 12:00:00 15,9 8,1 28 15 W 1013,2
20.05.2019 11:00:00 16,1 9,9 21 11 W 1012,5
20.05.2019 10:00:00 14,0 10,2 24 13 WSW 1012,6
20.05.2019 09:00:00 13,0 9,0 16 9 W 1012,7
20.05.2019 08:00:00 11,7 8,5 0 0 N 1012,4
20.05.2019 07:00:00 11,5 7,8 0 0 N 1011,9
20.05.2019 06:00:00 9,4 5,9 0 0 N 1011,8
20.05.2019 05:00:00 9,7 5,4 0 0 N 1011,7
20.05.2019 04:00:00 11,2 6,7 0 0 N 1011,4
20.05.2019 03:00:00 11,0 7,6 0 0 N 1011,8
20.05.2019 02:00:00 12,0 8,2 0 0 N 1011,5
20.05.2019 01:00:00 11,2 7,8 0 0 N 1011,7
20.05.2019 00:00:00 11,4 7,8 0 0 N 1011,7
19.05.2019 23:00:00 12,3 7,5 11 6 NW 1011,1
19.05.2019 22:00:00 13,5 8,3 0 0 N 1010,4
19.05.2019 21:00:00 14,0 9,0 11 6 N 1010,1
19.05.2019 20:00:00 15,4 9,5 0 0 N 1009,3
19.05.2019 19:00:00 16,1 10,1 0 0 N 1008,6
19.05.2019 18:00:00 17,0 10,6 26 14 N 1007,5
19.05.2019 17:00:00 17,8 12,6 11 6 NNW 1007,0
19.05.2019 16:00:00 14,7 9,9 26 14 W 1007,8
19.05.2019 15:00:00 18,1 14,3 24 13 WNW 1006,3
19.05.2019 14:00:00 19,5 12,0 0 0 N 1005,6
19.05.2019 13:00:00 18,5 10,5 0 0 N 1005,5
19.05.2019 12:00:00 18,0 12,4 4 2 WNW 1005,9
19.05.2019 11:00:00 17,0 14,2 4 2 W 1005,9
19.05.2019 10:00:00 15,3 15,2 13 7 SSW 1006,2
19.05.2019 09:00:00 14,1 14,0 0 0 N 1006,7
19.05.2019 08:00:00 13,5 13,4 15 8 SSW 1007,1
19.05.2019 07:00:00 13,2 13,1 15 8 SW 1007,6
19.05.2019 06:00:00 13,0 12,9 13 7 SSW 1007,1
19.05.2019 05:00:00 13,0 12,9 16 9 SSW 1007,7
19.05.2019 04:00:00 13,1 13,0 15 8 S 1008,0
19.05.2019 03:00:00 13,1 13,0 18 10 S 1008,6
19.05.2019 02:00:00 13,1 13,0 18 10 S 1008,6
19.05.2019 01:00:00 13,2 13,1 18 10 SSW 1009,6
19.05.2019 00:00:00 13,3 13,2 21 11 SSW 1010,0
18.05.2019 23:00:00 13,4 13,3 31 17 S 1010,3
18.05.2019 22:00:00 13,4 13,3 18 10 SSW 1010,5
18.05.2019 21:00:00 13,4 13,3 26 14 SSW 1010,0
18.05.2019 20:00:00 13,7 13,6 29 16 SSW 1009,7
18.05.2019 19:00:00 14,5 14,0 28 15 SSW 1009,4
18.05.2019 18:00:00 15,0 14,5 28 15 S 1009,2
18.05.2019 17:00:00 14,9 14,0 28 15 SSW 1009,1
18.05.2019 16:00:00 15,2 14,3 39 21 SSW 1008,6
18.05.2019 15:00:00 14,5 13,8 39 21 SSW 1009,8
18.05.2019 14:00:00 14,7 13,5 28 15 SSW 1010,2
18.05.2019 13:00:00 14,4 13,7 54 29 SSW 1009,9
18.05.2019 12:00:00 14,3 13,9 50 27 SSW 1010,2
18.05.2019 11:00:00 13,7 13,6 37 20 S 1010,2
18.05.2019 10:00:00 13,1 13,0 29 16 SSW 1011,1
18.05.2019 09:00:00 12,8 12,8 22 12 S 1010,7
18.05.2019 08:00:00 12,5 12,5 21 11 SSW 1011,2
18.05.2019 07:00:00 12,3 12,3 21 11 S 1010,5
18.05.2019 06:00:00 12,4 12,4 0 0 N 1010,6
18.05.2019 05:00:00 12,5 12,5 18 10 SSW 1010,9
18.05.2019 04:00:00 - - - - - -
18.05.2019 03:00:00 12,2 12,2 2 1 SSW 1011,5
18.05.2019 02:00:00 12,2 12,2 15 8 SSW 1011,7
18.05.2019 01:00:00 11,8 11,8 15 8 SSW 1012,0
18.05.2019 00:00:00 11,8 11,8 0 0 N 1012,7
17.05.2019 23:00:00 11,7 11,7 16 9 SW 1013,2
17.05.2019 22:00:00 11,4 11,4 16 9 SSW 1012,8
17.05.2019 21:00:00 11,8 10,9 16 9 SW 1012,5
17.05.2019 20:00:00 13,4 10,0 0 0 N 1011,9
17.05.2019 19:00:00 15,0 9,3 0 0 N 1011,9
17.05.2019 18:00:00 16,7 9,3 21 11 SW 1011,3
17.05.2019 17:00:00 18,0 11,0 13 7 SW 1011,1
17.05.2019 16:00:00 18,0 10,6 13 7 S 1011,2
17.05.2019 15:00:00 17,8 10,8 15 8 SW 1011,5
17.05.2019 14:00:00 17,7 9,5 0 0 N 1011,9
17.05.2019 13:00:00 16,6 11,1 8 4 WSW 1012,5
17.05.2019 12:00:00 15,4 11,4 0 0 N 1013,1
17.05.2019 11:00:00 14,1 10,7 0 0 N 1013,5
17.05.2019 10:00:00 13,6 10,9 0 0 N 1013,7
17.05.2019 09:00:00 12,6 12,6 0 0 N 1013,6
17.05.2019 08:00:00 11,1 11,1 0 0 N 1013,6
17.05.2019 07:00:00 9,1 9,1 11 6 NE 1013,7
17.05.2019 06:00:00 8,8 8,8 0 0 N 1013,4
17.05.2019 05:00:00 9,3 9,3 0 0 N 1013,3
17.05.2019 04:00:00 9,5 9,5 0 0 N 1013,3
17.05.2019 03:00:00 9,9 9,9 0 0 N 1013,6
17.05.2019 02:00:00 10,6 10,6 15 8 NE 1013,6
17.05.2019 01:00:00 10,7 10,7 0 0 N 1013,9
17.05.2019 00:00:00 10,6 10,6 0 0 N 1014,2
16.05.2019 23:00:00 10,5 10,5 16 9 NE 1014,4
16.05.2019 22:00:00 10,9 10,9 15 8 NE 1014,1
16.05.2019 21:00:00 11,0 11,0 0 0 N 1013,4
16.05.2019 20:00:00 11,5 11,2 16 9 ENE 1012,9
16.05.2019 19:00:00 12,1 11,0 15 8 ENE 1012,5
16.05.2019 18:00:00 12,7 11,4 24 13 ENE 1012,2
16.05.2019 17:00:00 12,7 11,4 26 14 ENE 1011,9
16.05.2019 16:00:00 12,4 12,1 0 0 N 1012,1
16.05.2019 15:00:00 11,6 11,6 0 0 N 1012,3
16.05.2019 14:00:00 11,7 11,5 15 8 ESE 1012,2
16.05.2019 13:00:00 13,4 12,4 0 0 N 1011,9
16.05.2019 12:00:00 12,6 10,8 16 9 SE 1012,0
16.05.2019 11:00:00 12,3 12,3 0 0 N 1012,2
16.05.2019 10:00:00 11,1 11,1 0 0 N 1012,4
16.05.2019 09:00:00 10,1 10,1 4 2 E 1012,3
16.05.2019 08:00:00 9,6 9,6 9 5 ESE 1012,5
16.05.2019 07:00:00 9,5 9,5 0 0 N 1012,2
16.05.2019 06:00:00 9,6 9,6 0 0 N 1011,8
16.05.2019 05:00:00 9,6 9,6 0 0 N 1011,5
16.05.2019 04:00:00 9,6 9,6 0 0 N 1012,1
16.05.2019 03:00:00 9,6 9,6 0 0 N 1012,4
16.05.2019 02:00:00 9,5 9,5 0 0 N 1013,0
16.05.2019 01:00:00 10,0 10,0 0 0 N 1013,3
16.05.2019 00:00:00 10,4 10,4 0 0 N 1013,6
15.05.2019 23:00:00 10,3 10,3 0 0 N 1013,6
15.05.2019 22:00:00 10,0 9,8 0 0 N 1013,9
15.05.2019 21:00:00 11,0 10,7 0 0 N 1013,6
15.05.2019 20:00:00 11,4 10,6 0 0 N 1013,5
15.05.2019 19:00:00 12,5 8,9 16 9 SSW 1013,0
15.05.2019 18:00:00 12,8 9,2 16 9 SSW 1013,1
15.05.2019 17:00:00 12,6 9,9 18 10 SSE 1013,0
15.05.2019 16:00:00 13,0 10,0 0 0 N 1012,9

tt = temperature
td = dewpoint
ff = wind speed
dd = wind direction
ppp = reduced air pressure

Next stations